sensor_id;sensor_type;location;lat;lon;timestamp;P1;durP1;ratioP1;P2;durP2;ratioP2
69434;SDS011;56625;54.322;18.582;2023-09-19T00:00:57;23.70;;;16.60;;
69434;SDS011;56625;54.322;18.582;2023-09-19T00:03:38;21.90;;;16.00;;
69434;SDS011;56625;54.322;18.582;2023-09-19T00:06:07;22.80;;;16.20;;
69434;SDS011;56625;54.322;18.582;2023-09-19T00:08:36;22.80;;;15.50;;
69434;SDS011;56625;54.322;18.582;2023-09-19T00:11:04;24.60;;;16.10;;
69434;SDS011;56625;54.322;18.582;2023-09-19T00:13:33;22.70;;;16.00;;
69434;SDS011;56625;54.322;18.582;2023-09-19T00:16:10;23.10;;;15.20;;
69434;SDS011;56625;54.322;18.582;2023-09-19T00:18:39;23.50;;;16.20;;
69434;SDS011;56625;54.322;18.582;2023-09-19T00:21:07;23.60;;;15.90;;
69434;SDS011;56625;54.322;18.582;2023-09-19T00:23:35;21.60;;;15.30;;
69434;SDS011;56625;54.322;18.582;2023-09-19T00:26:03;21.80;;;16.10;;
69434;SDS011;56625;54.322;18.582;2023-09-19T00:28:31;21.80;;;15.70;;
69434;SDS011;56625;54.322;18.582;2023-09-19T00:31:00;21.30;;;15.90;;
69434;SDS011;56625;54.322;18.582;2023-09-19T00:33:29;23.50;;;15.90;;
69434;SDS011;56625;54.322;18.582;2023-09-19T00:35:58;21.50;;;15.90;;
69434;SDS011;56625;54.322;18.582;2023-09-19T00:38:26;23.80;;;16.30;;
69434;SDS011;56625;54.322;18.582;2023-09-19T00:40:56;22.40;;;15.60;;
69434;SDS011;56625;54.322;18.582;2023-09-19T00:43:27;23.60;;;15.80;;
69434;SDS011;56625;54.322;18.582;2023-09-19T00:45:56;20.80;;;16.20;;
69434;SDS011;56625;54.322;18.582;2023-09-19T00:48:25;24.00;;;15.90;;
69434;SDS011;56625;54.322;18.582;2023-09-19T00:50:59;22.80;;;16.60;;
69434;SDS011;56625;54.322;18.582;2023-09-19T00:53:31;21.50;;;15.70;;
69434;SDS011;56625;54.322;18.582;2023-09-19T00:56:03;22.00;;;16.60;;
69434;SDS011;56625;54.322;18.582;2023-09-19T00:58:36;22.90;;;16.50;;
69434;SDS011;56625;54.322;18.582;2023-09-19T01:01:05;23.10;;;16.70;;
69434;SDS011;56625;54.322;18.582;2023-09-19T01:03:36;24.20;;;15.80;;
69434;SDS011;56625;54.322;18.582;2023-09-19T01:06:06;24.70;;;16.90;;
69434;SDS011;56625;54.322;18.582;2023-09-19T01:08:36;26.40;;;18.10;;
69434;SDS011;56625;54.322;18.582;2023-09-19T01:11:21;27.50;;;17.30;;
69434;SDS011;56625;54.322;18.582;2023-09-19T01:14:15;23.40;;;16.90;;
69434;SDS011;56625;54.322;18.582;2023-09-19T01:20:04;23.70;;;17.30;;
69434;SDS011;56625;54.322;18.582;2023-09-19T01:23:10;26.90;;;17.80;;
69434;SDS011;56625;54.322;18.582;2023-09-19T01:26:16;24.10;;;17.10;;
69434;SDS011;56625;54.322;18.582;2023-09-19T01:31:59;24.90;;;17.90;;
69434;SDS011;56625;54.322;18.582;2023-09-19T01:34:47;29.60;;;18.90;;
69434;SDS011;56625;54.322;18.582;2023-09-19T01:37:18;26.00;;;18.40;;
69434;SDS011;56625;54.322;18.582;2023-09-19T01:39:53;24.20;;;17.40;;
69434;SDS011;56625;54.322;18.582;2023-09-19T01:45:10;25.20;;;18.40;;
69434;SDS011;56625;54.322;18.582;2023-09-19T01:47:59;25.70;;;18.20;;
69434;SDS011;56625;54.322;18.582;2023-09-19T01:51:00;25.20;;;17.80;;
69434;SDS011;56625;54.322;18.582;2023-09-19T01:53:36;27.70;;;19.40;;
69434;SDS011;56625;54.322;18.582;2023-09-19T01:56:16;26.40;;;18.80;;
69434;SDS011;56625;54.322;18.582;2023-09-19T01:58:53;26.60;;;18.20;;
69434;SDS011;56625;54.322;18.582;2023-09-19T02:01:28;26.00;;;17.80;;
69434;SDS011;56625;54.322;18.582;2023-09-19T02:03:57;25.80;;;17.90;;
69434;SDS011;56625;54.322;18.582;2023-09-19T02:06:26;25.20;;;17.50;;
69434;SDS011;56625;54.322;18.582;2023-09-19T02:08:55;21.90;;;15.50;;
69434;SDS011;56625;54.322;18.582;2023-09-19T02:11:23;24.00;;;15.70;;
69434;SDS011;56625;54.322;18.582;2023-09-19T02:13:51;21.20;;;14.00;;
69434;SDS011;56625;54.322;18.582;2023-09-19T02:16:22;16.40;;;11.30;;
69434;SDS011;56625;54.322;18.582;2023-09-19T02:18:50;17.80;;;10.80;;
69434;SDS011;56625;54.322;18.582;2023-09-19T02:21:18;16.30;;;10.60;;
69434;SDS011;56625;54.322;18.582;2023-09-19T02:23:46;15.20;;;10.80;;
69434;SDS011;56625;54.322;18.582;2023-09-19T02:26:15;16.30;;;10.20;;
69434;SDS011;56625;54.322;18.582;2023-09-19T02:28:43;16.60;;;10.00;;
69434;SDS011;56625;54.322;18.582;2023-09-19T02:31:13;14.70;;;9.70;;
69434;SDS011;56625;54.322;18.582;2023-09-19T02:33:42;16.70;;;9.70;;
69434;SDS011;56625;54.322;18.582;2023-09-19T02:36:11;16.30;;;9.90;;
69434;SDS011;56625;54.322;18.582;2023-09-19T02:38:39;16.20;;;9.50;;
69434;SDS011;56625;54.322;18.582;2023-09-19T02:41:07;14.20;;;9.20;;
69434;SDS011;56625;54.322;18.582;2023-09-19T02:43:35;16.60;;;9.90;;
69434;SDS011;56625;54.322;18.582;2023-09-19T02:46:03;14.00;;;8.00;;
69434;SDS011;56625;54.322;18.582;2023-09-19T02:48:31;13.90;;;8.00;;
69434;SDS011;56625;54.322;18.582;2023-09-19T02:50:59;14.70;;;7.40;;
69434;SDS011;56625;54.322;18.582;2023-09-19T02:53:28;11.30;;;7.40;;
69434;SDS011;56625;54.322;18.582;2023-09-19T02:55:56;13.20;;;7.20;;
69434;SDS011;56625;54.322;18.582;2023-09-19T02:58:24;11.90;;;7.30;;
69434;SDS011;56625;54.322;18.582;2023-09-19T03:00:52;11.50;;;6.50;;
69434;SDS011;56625;54.322;18.582;2023-09-19T03:03:23;12.00;;;6.70;;
69434;SDS011;56625;54.322;18.582;2023-09-19T03:05:51;12.50;;;6.10;;
69434;SDS011;56625;54.322;18.582;2023-09-19T03:08:22;12.10;;;6.30;;
69434;SDS011;56625;54.322;18.582;2023-09-19T03:10:51;12.40;;;6.40;;
69434;SDS011;56625;54.322;18.582;2023-09-19T03:13:19;12.00;;;6.00;;
69434;SDS011;56625;54.322;18.582;2023-09-19T03:15:48;10.40;;;5.80;;
69434;SDS011;56625;54.322;18.582;2023-09-19T03:18:18;10.70;;;5.30;;
69434;SDS011;56625;54.322;18.582;2023-09-19T03:20:53;9.10;;;4.80;;
69434;SDS011;56625;54.322;18.582;2023-09-19T03:23:23;12.50;;;4.90;;
69434;SDS011;56625;54.322;18.582;2023-09-19T03:25:51;8.90;;;4.40;;
69434;SDS011;56625;54.322;18.582;2023-09-19T03:28:20;9.10;;;4.20;;
69434;SDS011;56625;54.322;18.582;2023-09-19T03:31:00;8.90;;;4.00;;
69434;SDS011;56625;54.322;18.582;2023-09-19T03:33:30;10.00;;;4.00;;
69434;SDS011;56625;54.322;18.582;2023-09-19T03:36:02;10.50;;;4.40;;
69434;SDS011;56625;54.322;18.582;2023-09-19T03:38:35;8.60;;;3.80;;
69434;SDS011;56625;54.322;18.582;2023-09-19T03:41:03;9.10;;;3.70;;
69434;SDS011;56625;54.322;18.582;2023-09-19T03:43:32;10.40;;;4.60;;
69434;SDS011;56625;54.322;18.582;2023-09-19T03:46:03;10.90;;;4.20;;
69434;SDS011;56625;54.322;18.582;2023-09-19T03:48:33;10.40;;;4.20;;
69434;SDS011;56625;54.322;18.582;2023-09-19T03:51:02;8.80;;;4.20;;
69434;SDS011;56625;54.322;18.582;2023-09-19T03:53:30;12.30;;;4.50;;
69434;SDS011;56625;54.322;18.582;2023-09-19T03:55:59;10.80;;;4.60;;
69434;SDS011;56625;54.322;18.582;2023-09-19T03:58:27;9.50;;;4.80;;
69434;SDS011;56625;54.322;18.582;2023-09-19T04:00:56;13.00;;;4.50;;
69434;SDS011;56625;54.322;18.582;2023-09-19T04:03:24;9.70;;;4.60;;
69434;SDS011;56625;54.322;18.582;2023-09-19T04:06:02;9.90;;;5.90;;
69434;SDS011;56625;54.322;18.582;2023-09-19T04:08:30;12.00;;;5.70;;
69434;SDS011;56625;54.322;18.582;2023-09-19T04:10:58;10.60;;;4.50;;
69434;SDS011;56625;54.322;18.582;2023-09-19T04:13:26;12.20;;;5.40;;
69434;SDS011;56625;54.322;18.582;2023-09-19T04:15:54;11.00;;;5.10;;
69434;SDS011;56625;54.322;18.582;2023-09-19T04:18:22;10.90;;;5.00;;
69434;SDS011;56625;54.322;18.582;2023-09-19T04:20:51;11.50;;;5.20;;
69434;SDS011;56625;54.322;18.582;2023-09-19T04:23:23;11.20;;;4.20;;
69434;SDS011;56625;54.322;18.582;2023-09-19T04:25:51;10.50;;;4.50;;
69434;SDS011;56625;54.322;18.582;2023-09-19T04:28:19;9.40;;;4.60;;
69434;SDS011;56625;54.322;18.582;2023-09-19T04:30:47;11.30;;;4.30;;
69434;SDS011;56625;54.322;18.582;2023-09-19T04:33:15;9.10;;;4.20;;
69434;SDS011;56625;54.322;18.582;2023-09-19T04:35:43;11.90;;;4.80;;
69434;SDS011;56625;54.322;18.582;2023-09-19T04:38:11;8.80;;;3.80;;
69434;SDS011;56625;54.322;18.582;2023-09-19T04:40:39;7.90;;;4.00;;
69434;SDS011;56625;54.322;18.582;2023-09-19T04:43:07;9.20;;;4.20;;
69434;SDS011;56625;54.322;18.582;2023-09-19T04:45:38;10.90;;;4.50;;
69434;SDS011;56625;54.322;18.582;2023-09-19T04:48:10;13.70;;;4.60;;
69434;SDS011;56625;54.322;18.582;2023-09-19T04:50:38;9.80;;;4.30;;
69434;SDS011;56625;54.322;18.582;2023-09-19T04:53:06;11.30;;;4.60;;
69434;SDS011;56625;54.322;18.582;2023-09-19T04:55:34;9.60;;;4.40;;
69434;SDS011;56625;54.322;18.582;2023-09-19T04:58:02;11.20;;;4.60;;
69434;SDS011;56625;54.322;18.582;2023-09-19T05:00:31;10.50;;;4.80;;
69434;SDS011;56625;54.322;18.582;2023-09-19T05:03:03;10.80;;;4.50;;
69434;SDS011;56625;54.322;18.582;2023-09-19T05:05:31;9.90;;;5.00;;
69434;SDS011;56625;54.322;18.582;2023-09-19T05:08:00;11.10;;;5.20;;
69434;SDS011;56625;54.322;18.582;2023-09-19T05:10:33;14.30;;;5.60;;
69434;SDS011;56625;54.322;18.582;2023-09-19T05:13:05;10.70;;;5.10;;
69434;SDS011;56625;54.322;18.582;2023-09-19T05:15:35;11.30;;;5.10;;
69434;SDS011;56625;54.322;18.582;2023-09-19T05:18:03;12.00;;;4.90;;
69434;SDS011;56625;54.322;18.582;2023-09-19T05:20:34;9.80;;;4.80;;
69434;SDS011;56625;54.322;18.582;2023-09-19T05:23:05;10.70;;;4.90;;
69434;SDS011;56625;54.322;18.582;2023-09-19T05:25:40;10.70;;;5.00;;
69434;SDS011;56625;54.322;18.582;2023-09-19T05:28:10;11.20;;;4.70;;
69434;SDS011;56625;54.322;18.582;2023-09-19T05:30:40;13.60;;;5.10;;
69434;SDS011;56625;54.322;18.582;2023-09-19T05:33:09;10.80;;;4.80;;
69434;SDS011;56625;54.322;18.582;2023-09-19T05:35:37;10.90;;;4.80;;
69434;SDS011;56625;54.322;18.582;2023-09-19T05:38:07;11.10;;;4.80;;
69434;SDS011;56625;54.322;18.582;2023-09-19T05:40:40;11.90;;;4.90;;
69434;SDS011;56625;54.322;18.582;2023-09-19T05:43:13;11.40;;;5.00;;
69434;SDS011;56625;54.322;18.582;2023-09-19T05:45:42;11.20;;;5.00;;
69434;SDS011;56625;54.322;18.582;2023-09-19T05:48:13;12.20;;;4.90;;
69434;SDS011;56625;54.322;18.582;2023-09-19T05:50:44;10.20;;;4.40;;
69434;SDS011;56625;54.322;18.582;2023-09-19T05:53:15;10.30;;;4.40;;
69434;SDS011;56625;54.322;18.582;2023-09-19T05:55:42;19.10;;;4.60;;
69434;SDS011;56625;54.322;18.582;2023-09-19T05:58:11;10.40;;;4.50;;
69434;SDS011;56625;54.322;18.582;2023-09-19T06:00:41;8.60;;;4.30;;
69434;SDS011;56625;54.322;18.582;2023-09-19T06:03:12;8.90;;;4.70;;
69434;SDS011;56625;54.322;18.582;2023-09-19T06:05:42;11.80;;;4.90;;
69434;SDS011;56625;54.322;18.582;2023-09-19T06:08:10;11.50;;;5.20;;
69434;SDS011;56625;54.322;18.582;2023-09-19T06:10:38;9.10;;;4.60;;
69434;SDS011;56625;54.322;18.582;2023-09-19T06:13:06;11.10;;;4.30;;
69434;SDS011;56625;54.322;18.582;2023-09-19T06:15:37;9.20;;;4.10;;
69434;SDS011;56625;54.322;18.582;2023-09-19T06:18:10;11.40;;;4.60;;
69434;SDS011;56625;54.322;18.582;2023-09-19T06:20:43;11.00;;;5.60;;
69434;SDS011;56625;54.322;18.582;2023-09-19T06:23:13;9.90;;;4.40;;
69434;SDS011;56625;54.322;18.582;2023-09-19T06:25:41;12.00;;;4.20;;
69434;SDS011;56625;54.322;18.582;2023-09-19T06:28:11;8.30;;;3.60;;
69434;SDS011;56625;54.322;18.582;2023-09-19T06:30:42;8.60;;;4.20;;
69434;SDS011;56625;54.322;18.582;2023-09-19T06:33:10;9.10;;;3.40;;
69434;SDS011;56625;54.322;18.582;2023-09-19T06:35:42;8.40;;;3.60;;
69434;SDS011;56625;54.322;18.582;2023-09-19T06:38:12;9.80;;;3.50;;
69434;SDS011;56625;54.322;18.582;2023-09-19T06:40:41;12.00;;;3.60;;
69434;SDS011;56625;54.322;18.582;2023-09-19T06:43:10;7.20;;;3.30;;
69434;SDS011;56625;54.322;18.582;2023-09-19T06:45:39;10.10;;;4.00;;
69434;SDS011;56625;54.322;18.582;2023-09-19T06:48:07;9.80;;;3.90;;
69434;SDS011;56625;54.322;18.582;2023-09-19T06:50:37;8.00;;;3.60;;
69434;SDS011;56625;54.322;18.582;2023-09-19T06:53:06;10.10;;;4.00;;
69434;SDS011;56625;54.322;18.582;2023-09-19T06:55:34;8.40;;;3.70;;
69434;SDS011;56625;54.322;18.582;2023-09-19T06:58:03;9.30;;;3.70;;
69434;SDS011;56625;54.322;18.582;2023-09-19T07:00:34;7.80;;;3.50;;
69434;SDS011;56625;54.322;18.582;2023-09-19T07:03:05;8.90;;;3.90;;
69434;SDS011;56625;54.322;18.582;2023-09-19T07:05:41;9.10;;;3.10;;
69434;SDS011;56625;54.322;18.582;2023-09-19T07:08:10;8.70;;;3.60;;
69434;SDS011;56625;54.322;18.582;2023-09-19T07:10:41;11.70;;;3.90;;
69434;SDS011;56625;54.322;18.582;2023-09-19T07:13:17;10.10;;;4.00;;
69434;SDS011;56625;54.322;18.582;2023-09-19T07:15:45;11.50;;;3.90;;
69434;SDS011;56625;54.322;18.582;2023-09-19T07:18:19;13.50;;;3.80;;
69434;SDS011;56625;54.322;18.582;2023-09-19T07:20:48;9.50;;;3.50;;
69434;SDS011;56625;54.322;18.582;2023-09-19T07:23:19;9.20;;;3.90;;
69434;SDS011;56625;54.322;18.582;2023-09-19T07:25:50;10.60;;;3.50;;
69434;SDS011;56625;54.322;18.582;2023-09-19T07:28:18;8.60;;;3.80;;
69434;SDS011;56625;54.322;18.582;2023-09-19T07:30:46;10.80;;;3.80;;
69434;SDS011;56625;54.322;18.582;2023-09-19T07:33:14;10.80;;;3.90;;
69434;SDS011;56625;54.322;18.582;2023-09-19T07:35:46;9.10;;;4.00;;
69434;SDS011;56625;54.322;18.582;2023-09-19T07:38:15;7.80;;;3.90;;
69434;SDS011;56625;54.322;18.582;2023-09-19T07:40:45;10.90;;;4.10;;
69434;SDS011;56625;54.322;18.582;2023-09-19T07:43:13;11.40;;;4.20;;
69434;SDS011;56625;54.322;18.582;2023-09-19T07:45:41;7.50;;;3.50;;
69434;SDS011;56625;54.322;18.582;2023-09-19T07:48:09;8.60;;;3.60;;
69434;SDS011;56625;54.322;18.582;2023-09-19T07:50:42;8.70;;;3.40;;
69434;SDS011;56625;54.322;18.582;2023-09-19T07:53:11;10.00;;;3.40;;
69434;SDS011;56625;54.322;18.582;2023-09-19T07:55:41;10.10;;;3.40;;
69434;SDS011;56625;54.322;18.582;2023-09-19T07:58:10;7.70;;;3.50;;
69434;SDS011;56625;54.322;18.582;2023-09-19T08:00:38;9.20;;;3.30;;
69434;SDS011;56625;54.322;18.582;2023-09-19T08:03:06;8.30;;;3.30;;
69434;SDS011;56625;54.322;18.582;2023-09-19T08:05:44;7.90;;;3.10;;
69434;SDS011;56625;54.322;18.582;2023-09-19T08:08:13;10.00;;;3.90;;
69434;SDS011;56625;54.322;18.582;2023-09-19T08:10:43;9.40;;;3.90;;
69434;SDS011;56625;54.322;18.582;2023-09-19T08:13:14;9.70;;;3.50;;
69434;SDS011;56625;54.322;18.582;2023-09-19T08:15:44;9.20;;;3.20;;
69434;SDS011;56625;54.322;18.582;2023-09-19T08:18:14;6.70;;;3.00;;
69434;SDS011;56625;54.322;18.582;2023-09-19T08:20:49;9.00;;;3.60;;
69434;SDS011;56625;54.322;18.582;2023-09-19T08:23:19;9.70;;;3.50;;
69434;SDS011;56625;54.322;18.582;2023-09-19T08:25:48;7.90;;;3.20;;
69434;SDS011;56625;54.322;18.582;2023-09-19T08:28:16;9.80;;;3.60;;
69434;SDS011;56625;54.322;18.582;2023-09-19T08:30:50;11.40;;;3.60;;
69434;SDS011;56625;54.322;18.582;2023-09-19T08:33:19;50.20;;;7.00;;
69434;SDS011;56625;54.322;18.582;2023-09-19T08:35:47;9.70;;;2.40;;
69434;SDS011;56625;54.322;18.582;2023-09-19T08:38:15;6.30;;;2.00;;
69434;SDS011;56625;54.322;18.582;2023-09-19T08:40:43;8.10;;;2.50;;
69434;SDS011;56625;54.322;18.582;2023-09-19T08:43:11;7.30;;;2.70;;
69434;SDS011;56625;54.322;18.582;2023-09-19T08:45:40;7.60;;;2.60;;
69434;SDS011;56625;54.322;18.582;2023-09-19T08:48:23;7.10;;;2.30;;
69434;SDS011;56625;54.322;18.582;2023-09-19T08:54:22;7.00;;;2.10;;
69434;SDS011;56625;54.322;18.582;2023-09-19T08:57:00;6.90;;;2.10;;
69434;SDS011;56625;54.322;18.582;2023-09-19T08:59:37;6.30;;;2.60;;
69434;SDS011;56625;54.322;18.582;2023-09-19T09:02:11;6.60;;;2.30;;
69434;SDS011;56625;54.322;18.582;2023-09-19T09:04:42;5.80;;;1.80;;
69434;SDS011;56625;54.322;18.582;2023-09-19T09:07:12;4.60;;;1.50;;
69434;SDS011;56625;54.322;18.582;2023-09-19T09:09:40;5.70;;;1.80;;
69434;SDS011;56625;54.322;18.582;2023-09-19T09:12:29;7.40;;;2.20;;
69434;SDS011;56625;54.322;18.582;2023-09-19T09:14:58;6.80;;;2.10;;
69434;SDS011;56625;54.322;18.582;2023-09-19T09:17:26;5.50;;;1.80;;
69434;SDS011;56625;54.322;18.582;2023-09-19T09:19:55;7.10;;;1.50;;
69434;SDS011;56625;54.322;18.582;2023-09-19T09:22:23;6.50;;;2.00;;
69434;SDS011;56625;54.322;18.582;2023-09-19T09:24:53;7.10;;;1.90;;
69434;SDS011;56625;54.322;18.582;2023-09-19T09:27:25;5.80;;;2.10;;
69434;SDS011;56625;54.322;18.582;2023-09-19T09:29:53;7.10;;;2.00;;
69434;SDS011;56625;54.322;18.582;2023-09-19T09:32:30;6.50;;;1.80;;
69434;SDS011;56625;54.322;18.582;2023-09-19T09:35:10;3.80;;;1.10;;
69434;SDS011;56625;54.322;18.582;2023-09-19T09:37:38;7.20;;;2.00;;
69434;SDS011;56625;54.322;18.582;2023-09-19T09:40:07;5.90;;;1.40;;
69434;SDS011;56625;54.322;18.582;2023-09-19T09:42:41;6.30;;;1.90;;
69434;SDS011;56625;54.322;18.582;2023-09-19T09:45:22;4.80;;;1.70;;
69434;SDS011;56625;54.322;18.582;2023-09-19T09:48:00;5.40;;;1.40;;
69434;SDS011;56625;54.322;18.582;2023-09-19T09:50:47;4.90;;;1.70;;
69434;SDS011;56625;54.322;18.582;2023-09-19T09:53:26;5.90;;;1.80;;
69434;SDS011;56625;54.322;18.582;2023-09-19T09:56:05;6.70;;;1.60;;
69434;SDS011;56625;54.322;18.582;2023-09-19T09:58:36;6.30;;;1.50;;
69434;SDS011;56625;54.322;18.582;2023-09-19T10:01:27;6.90;;;1.50;;
69434;SDS011;56625;54.322;18.582;2023-09-19T10:03:59;6.40;;;1.60;;
69434;SDS011;56625;54.322;18.582;2023-09-19T10:06:40;4.80;;;1.30;;
69434;SDS011;56625;54.322;18.582;2023-09-19T10:09:14;5.90;;;1.40;;
69434;SDS011;56625;54.322;18.582;2023-09-19T10:11:46;7.80;;;1.70;;
69434;SDS011;56625;54.322;18.582;2023-09-19T10:14:25;3.80;;;1.40;;
69434;SDS011;56625;54.322;18.582;2023-09-19T10:16:59;6.10;;;1.50;;
69434;SDS011;56625;54.322;18.582;2023-09-19T10:19:42;6.00;;;1.60;;
69434;SDS011;56625;54.322;18.582;2023-09-19T10:22:19;4.80;;;1.40;;
69434;SDS011;56625;54.322;18.582;2023-09-19T10:24:50;6.10;;;1.20;;
69434;SDS011;56625;54.322;18.582;2023-09-19T10:27:30;5.10;;;1.50;;
69434;SDS011;56625;54.322;18.582;2023-09-19T10:30:08;6.50;;;1.40;;
69434;SDS011;56625;54.322;18.582;2023-09-19T10:32:40;7.30;;;1.50;;
69434;SDS011;56625;54.322;18.582;2023-09-19T10:35:11;7.10;;;1.30;;
69434;SDS011;56625;54.322;18.582;2023-09-19T10:37:43;6.40;;;1.60;;
69434;SDS011;56625;54.322;18.582;2023-09-19T10:40:18;5.50;;;1.20;;
69434;SDS011;56625;54.322;18.582;2023-09-19T10:42:48;3.90;;;1.10;;
69434;SDS011;56625;54.322;18.582;2023-09-19T10:45:18;4.80;;;1.20;;
69434;SDS011;56625;54.322;18.582;2023-09-19T10:47:47;5.20;;;1.20;;
69434;SDS011;56625;54.322;18.582;2023-09-19T10:50:20;8.60;;;1.60;;
69434;SDS011;56625;54.322;18.582;2023-09-19T10:52:54;4.50;;;1.30;;
69434;SDS011;56625;54.322;18.582;2023-09-19T10:55:35;5.50;;;1.20;;
69434;SDS011;56625;54.322;18.582;2023-09-19T10:58:05;4.10;;;1.00;;
69434;SDS011;56625;54.322;18.582;2023-09-19T11:00:56;4.70;;;1.20;;
69434;SDS011;56625;54.322;18.582;2023-09-19T11:03:33;9.20;;;1.40;;
69434;SDS011;56625;54.322;18.582;2023-09-19T11:06:07;7.40;;;0.90;;
69434;SDS011;56625;54.322;18.582;2023-09-19T11:08:56;4.70;;;1.10;;
69434;SDS011;56625;54.322;18.582;2023-09-19T11:11:42;5.60;;;1.00;;
69434;SDS011;56625;54.322;18.582;2023-09-19T11:30:51;7.90;;;1.50;;
69434;SDS011;56625;54.322;18.582;2023-09-19T11:33:23;6.10;;;1.20;;
69434;SDS011;56625;54.322;18.582;2023-09-19T11:46:29;6.30;;;1.30;;
69434;SDS011;56625;54.322;18.582;2023-09-19T11:49:08;6.90;;;1.10;;
69434;SDS011;56625;54.322;18.582;2023-09-19T11:51:41;5.70;;;1.20;;
69434;SDS011;56625;54.322;18.582;2023-09-19T11:54:13;4.20;;;1.30;;
69434;SDS011;56625;54.322;18.582;2023-09-19T11:56:51;5.40;;;1.10;;
69434;SDS011;56625;54.322;18.582;2023-09-19T11:59:29;34.80;;;4.10;;
69434;SDS011;56625;54.322;18.582;2023-09-19T12:02:01;10.60;;;2.40;;
69434;SDS011;56625;54.322;18.582;2023-09-19T12:04:40;10.20;;;1.70;;
69434;SDS011;56625;54.322;18.582;2023-09-19T12:07:13;4.90;;;1.20;;
69434;SDS011;56625;54.322;18.582;2023-09-19T12:09:51;13.40;;;2.20;;
69434;SDS011;56625;54.322;18.582;2023-09-19T12:12:32;6.10;;;1.30;;
69434;SDS011;56625;54.322;18.582;2023-09-19T12:15:04;4.30;;;1.00;;
69434;SDS011;56625;54.322;18.582;2023-09-19T12:17:36;18.40;;;2.40;;
69434;SDS011;56625;54.322;18.582;2023-09-19T12:20:07;5.80;;;1.70;;
69434;SDS011;56625;54.322;18.582;2023-09-19T12:22:43;6.70;;;1.30;;
69434;SDS011;56625;54.322;18.582;2023-09-19T12:25:15;9.90;;;1.40;;
69434;SDS011;56625;54.322;18.582;2023-09-19T12:27:49;4.20;;;1.10;;
69434;SDS011;56625;54.322;18.582;2023-09-19T12:30:27;3.90;;;0.90;;
69434;SDS011;56625;54.322;18.582;2023-09-19T12:32:56;5.80;;;1.30;;
69434;SDS011;56625;54.322;18.582;2023-09-19T12:35:28;5.20;;;0.90;;
69434;SDS011;56625;54.322;18.582;2023-09-19T12:38:03;5.40;;;1.00;;
69434;SDS011;56625;54.322;18.582;2023-09-19T12:40:32;5.00;;;1.20;;
69434;SDS011;56625;54.322;18.582;2023-09-19T12:43:02;4.90;;;1.10;;
69434;SDS011;56625;54.322;18.582;2023-09-19T12:45:31;5.60;;;1.10;;
69434;SDS011;56625;54.322;18.582;2023-09-19T12:51:10;7.00;;;1.20;;
69434;SDS011;56625;54.322;18.582;2023-09-19T12:53:44;7.30;;;1.40;;
69434;SDS011;56625;54.322;18.582;2023-09-19T12:56:17;10.20;;;2.40;;
69434;SDS011;56625;54.322;18.582;2023-09-19T12:58:56;13.10;;;1.80;;
69434;SDS011;56625;54.322;18.582;2023-09-19T13:01:31;8.20;;;1.40;;
69434;SDS011;56625;54.322;18.582;2023-09-19T13:04:20;6.10;;;1.30;;
69434;SDS011;56625;54.322;18.582;2023-09-19T13:06:55;11.20;;;1.90;;
69434;SDS011;56625;54.322;18.582;2023-09-19T13:09:29;8.50;;;1.70;;
69434;SDS011;56625;54.322;18.582;2023-09-19T13:12:04;11.60;;;2.00;;
69434;SDS011;56625;54.322;18.582;2023-09-19T13:15:15;8.40;;;1.30;;
69434;SDS011;56625;54.322;18.582;2023-09-19T13:17:54;4.80;;;1.10;;
69434;SDS011;56625;54.322;18.582;2023-09-19T13:20:26;9.30;;;1.50;;
69434;SDS011;56625;54.322;18.582;2023-09-19T13:23:00;10.50;;;1.50;;
69434;SDS011;56625;54.322;18.582;2023-09-19T13:25:34;4.60;;;0.80;;
69434;SDS011;56625;54.322;18.582;2023-09-19T13:28:18;4.50;;;0.90;;
69434;SDS011;56625;54.322;18.582;2023-09-19T13:30:46;8.60;;;1.40;;
69434;SDS011;56625;54.322;18.582;2023-09-19T13:33:15;5.60;;;1.10;;
69434;SDS011;56625;54.322;18.582;2023-09-19T13:35:48;6.80;;;1.10;;
69434;SDS011;56625;54.322;18.582;2023-09-19T13:38:16;8.30;;;1.30;;
69434;SDS011;56625;54.322;18.582;2023-09-19T13:40:46;9.20;;;3.10;;
69434;SDS011;56625;54.322;18.582;2023-09-19T13:43:15;5.80;;;0.90;;
69434;SDS011;56625;54.322;18.582;2023-09-19T13:45:44;5.40;;;0.70;;
69434;SDS011;56625;54.322;18.582;2023-09-19T13:48:11;5.40;;;1.10;;
69434;SDS011;56625;54.322;18.582;2023-09-19T13:50:40;4.80;;;1.20;;
69434;SDS011;56625;54.322;18.582;2023-09-19T13:53:10;5.70;;;1.20;;
69434;SDS011;56625;54.322;18.582;2023-09-19T13:55:39;5.00;;;1.10;;
69434;SDS011;56625;54.322;18.582;2023-09-19T13:58:08;3.60;;;0.80;;
69434;SDS011;56625;54.322;18.582;2023-09-19T14:00:38;6.30;;;1.30;;
69434;SDS011;56625;54.322;18.582;2023-09-19T14:03:06;6.70;;;1.30;;
69434;SDS011;56625;54.322;18.582;2023-09-19T14:05:36;4.70;;;1.20;;
69434;SDS011;56625;54.322;18.582;2023-09-19T14:08:05;7.20;;;1.80;;
69434;SDS011;56625;54.322;18.582;2023-09-19T14:10:33;4.40;;;1.10;;
69434;SDS011;56625;54.322;18.582;2023-09-19T14:13:03;3.70;;;1.20;;
69434;SDS011;56625;54.322;18.582;2023-09-19T14:15:36;5.10;;;1.20;;
69434;SDS011;56625;54.322;18.582;2023-09-19T14:18:07;5.80;;;1.30;;
69434;SDS011;56625;54.322;18.582;2023-09-19T14:20:38;4.20;;;1.00;;
69434;SDS011;56625;54.322;18.582;2023-09-19T14:23:10;7.30;;;1.30;;
69434;SDS011;56625;54.322;18.582;2023-09-19T14:25:38;4.70;;;1.20;;
69434;SDS011;56625;54.322;18.582;2023-09-19T14:28:09;5.40;;;1.20;;
69434;SDS011;56625;54.322;18.582;2023-09-19T14:30:37;6.10;;;1.10;;
69434;SDS011;56625;54.322;18.582;2023-09-19T14:33:06;7.00;;;1.80;;
69434;SDS011;56625;54.322;18.582;2023-09-19T14:35:37;7.40;;;1.70;;
69434;SDS011;56625;54.322;18.582;2023-09-19T14:38:05;5.60;;;1.20;;
69434;SDS011;56625;54.322;18.582;2023-09-19T14:40:33;6.30;;;1.40;;
69434;SDS011;56625;54.322;18.582;2023-09-19T14:43:06;6.90;;;1.30;;
69434;SDS011;56625;54.322;18.582;2023-09-19T14:45:36;4.80;;;1.40;;
69434;SDS011;56625;54.322;18.582;2023-09-19T14:48:05;5.00;;;1.10;;
69434;SDS011;56625;54.322;18.582;2023-09-19T14:50:33;4.10;;;1.10;;
69434;SDS011;56625;54.322;18.582;2023-09-19T14:53:01;6.00;;;1.30;;
69434;SDS011;56625;54.322;18.582;2023-09-19T14:55:31;7.70;;;1.60;;
69434;SDS011;56625;54.322;18.582;2023-09-19T14:58:03;5.40;;;1.40;;
69434;SDS011;56625;54.322;18.582;2023-09-19T15:00:31;5.60;;;1.30;;
69434;SDS011;56625;54.322;18.582;2023-09-19T15:03:00;5.30;;;1.50;;
69434;SDS011;56625;54.322;18.582;2023-09-19T15:05:29;6.50;;;1.30;;
69434;SDS011;56625;54.322;18.582;2023-09-19T15:07:58;7.20;;;1.30;;
69434;SDS011;56625;54.322;18.582;2023-09-19T15:10:26;5.30;;;1.00;;
69434;SDS011;56625;54.322;18.582;2023-09-19T15:12:54;5.60;;;1.30;;
69434;SDS011;56625;54.322;18.582;2023-09-19T15:15:22;4.90;;;1.20;;
69434;SDS011;56625;54.322;18.582;2023-09-19T15:17:50;6.20;;;1.10;;
69434;SDS011;56625;54.322;18.582;2023-09-19T15:20:19;4.80;;;1.10;;
69434;SDS011;56625;54.322;18.582;2023-09-19T15:22:49;5.90;;;1.60;;
69434;SDS011;56625;54.322;18.582;2023-09-19T15:25:18;5.90;;;1.30;;
69434;SDS011;56625;54.322;18.582;2023-09-19T15:27:45;5.60;;;1.30;;
69434;SDS011;56625;54.322;18.582;2023-09-19T15:30:13;4.40;;;1.30;;
69434;SDS011;56625;54.322;18.582;2023-09-19T15:32:43;6.00;;;1.50;;
69434;SDS011;56625;54.322;18.582;2023-09-19T15:35:11;5.40;;;1.40;;